sensor_id;sensor_type;location;lat;lon;timestamp;pressure;altitude;pressure_sealevel;temperature;humidity
63665;BME280;49820;33.966;73.390;2023-05-23T01:31:50;78965.22;;;18.97;56.96
63665;BME280;49820;33.966;73.390;2023-05-23T01:34:21;78958.72;;;19.19;61.19
63665;BME280;49820;33.966;73.390;2023-05-23T01:36:55;78931.16;;;19.29;56.24
63665;BME280;49820;33.966;73.390;2023-05-23T01:39:25;78901.91;;;19.32;60.37
63665;BME280;49820;33.966;73.390;2023-05-23T01:41:54;78868.16;;;19.43;55.38
63665;BME280;49820;33.966;73.390;2023-05-23T01:44:23;78935.28;;;20.23;55.16
63665;BME280;49820;33.966;73.390;2023-05-23T01:46:54;78921.19;;;20.33;54.08
63665;BME280;49820;33.966;73.390;2023-05-23T02:09:58;78975.31;;;21.13;47.95
63665;BME280;49820;33.966;73.390;2023-05-23T02:12:28;78959.81;;;20.99;44.77
63665;BME280;49820;33.966;73.390;2023-05-23T02:14:57;78963.94;;;20.98;44.18
63665;BME280;49820;33.966;73.390;2023-05-23T02:17:26;78955.00;;;21.12;43.36
63665;BME280;49820;33.966;73.390;2023-05-23T02:19:56;78952.69;;;21.55;43.30
63665;BME280;49820;33.966;73.390;2023-05-23T02:22:25;78969.31;;;22.10;44.24
63665;BME280;49820;33.966;73.390;2023-05-23T02:24:54;78985.00;;;22.79;45.41
63665;BME280;49820;33.966;73.390;2023-05-23T02:27:23;78951.88;;;22.98;47.67
63665;BME280;49820;33.966;73.390;2023-05-23T02:29:52;78957.00;;;23.15;43.88
63665;BME280;49820;33.966;73.390;2023-05-23T02:32:21;78976.53;;;22.96;41.53
63665;BME280;49820;33.966;73.390;2023-05-23T02:34:51;78970.63;;;22.58;41.30
63665;BME280;49820;33.966;73.390;2023-05-23T02:37:23;78979.72;;;22.77;40.81
63665;BME280;49820;33.966;73.390;2023-05-23T02:39:52;78965.94;;;22.79;41.30
63665;BME280;49820;33.966;73.390;2023-05-23T02:42:21;78959.19;;;23.02;40.23
63665;BME280;49820;33.966;73.390;2023-05-23T02:44:50;78978.28;;;23.12;41.29
63665;BME280;49820;33.966;73.390;2023-05-23T02:47:19;78972.66;;;23.38;40.31
63665;BME280;49820;33.966;73.390;2023-05-23T02:49:48;78985.88;;;23.67;40.04
63665;BME280;49820;33.966;73.390;2023-05-23T02:52:17;78971.84;;;23.73;40.27
63665;BME280;49820;33.966;73.390;2023-05-23T02:54:46;78993.94;;;24.01;40.14
63665;BME280;49820;33.966;73.390;2023-05-23T02:57:16;78979.53;;;23.37;42.11
63665;BME280;49820;33.966;73.390;2023-05-23T02:59:45;78981.50;;;23.04;42.22
63665;BME280;49820;33.966;73.390;2023-05-23T03:02:15;79001.03;;;22.86;42.51
63665;BME280;49820;33.966;73.390;2023-05-23T03:04:44;78998.00;;;23.47;44.58
63665;BME280;49820;33.966;73.390;2023-05-23T03:07:13;78978.66;;;24.38;46.28
63665;BME280;49820;33.966;73.390;2023-05-23T03:09:55;78988.69;;;25.25;38.52
63665;BME280;49820;33.966;73.390;2023-05-23T03:12:24;78986.22;;;25.61;37.24
63665;BME280;49820;33.966;73.390;2023-05-23T03:14:54;78994.03;;;25.57;36.27
63665;BME280;49820;33.966;73.390;2023-05-23T03:17:24;79000.56;;;25.62;37.08
63665;BME280;49820;33.966;73.390;2023-05-23T03:19:56;78994.81;;;25.15;43.73
63665;BME280;49820;33.966;73.390;2023-05-23T03:22:25;78997.22;;;25.80;46.14
63665;BME280;49820;33.966;73.390;2023-05-23T03:24:54;78990.78;;;26.14;47.79
63665;BME280;49820;33.966;73.390;2023-05-23T03:27:24;79001.09;;;25.02;48.83
63665;BME280;49820;33.966;73.390;2023-05-23T03:29:53;78987.97;;;24.73;50.19
63665;BME280;49820;33.966;73.390;2023-05-23T03:32:22;78987.44;;;25.43;48.77
63665;BME280;49820;33.966;73.390;2023-05-23T03:34:51;79015.69;;;25.61;48.97
63665;BME280;49820;33.966;73.390;2023-05-23T03:37:21;78982.66;;;24.60;49.45
63665;BME280;49820;33.966;73.390;2023-05-23T03:39:50;78985.25;;;24.09;53.07
63665;BME280;49820;33.966;73.390;2023-05-23T03:42:19;78988.50;;;24.01;53.80
63665;BME280;49820;33.966;73.390;2023-05-23T03:44:48;78955.97;;;23.54;52.80
63665;BME280;49820;33.966;73.390;2023-05-23T03:47:18;78976.78;;;22.92;53.70
63665;BME280;49820;33.966;73.390;2023-05-23T03:49:49;78977.66;;;22.89;54.00
63665;BME280;49820;33.966;73.390;2023-05-23T03:52:19;78991.25;;;22.78;51.58
63665;BME280;49820;33.966;73.390;2023-05-23T03:54:50;79010.84;;;22.21;53.36
63665;BME280;49820;33.966;73.390;2023-05-23T03:57:19;79006.16;;;21.71;56.14
63665;BME280;49820;33.966;73.390;2023-05-23T03:59:50;79001.41;;;22.07;56.94
63665;BME280;49820;33.966;73.390;2023-05-23T04:02:20;78986.97;;;21.98;57.47
63665;BME280;49820;33.966;73.390;2023-05-23T04:04:50;78995.84;;;22.45;57.67
63665;BME280;49820;33.966;73.390;2023-05-23T04:07:19;78996.94;;;22.15;56.81
63665;BME280;49820;33.966;73.390;2023-05-23T04:09:48;78995.97;;;22.07;56.54
63665;BME280;49820;33.966;73.390;2023-05-23T04:12:17;78989.16;;;21.96;56.42
63665;BME280;49820;33.966;73.390;2023-05-23T04:14:47;79006.13;;;22.32;57.24
63665;BME280;49820;33.966;73.390;2023-05-23T04:17:18;78982.91;;;21.49;57.30
63665;BME280;49820;33.966;73.390;2023-05-23T04:19:47;79005.06;;;22.27;58.99
63665;BME280;49820;33.966;73.390;2023-05-23T04:22:17;78996.50;;;22.69;54.36
63665;BME280;49820;33.966;73.390;2023-05-23T04:24:46;78991.25;;;22.78;56.54
63665;BME280;49820;33.966;73.390;2023-05-23T04:27:16;78990.00;;;23.21;57.09
63665;BME280;49820;33.966;73.390;2023-05-23T04:29:46;78989.72;;;24.47;54.30
63665;BME280;49820;33.966;73.390;2023-05-23T04:32:15;78965.03;;;24.89;57.48
63665;BME280;49820;33.966;73.390;2023-05-23T04:34:47;78973.53;;;25.36;51.25
63665;BME280;49820;33.966;73.390;2023-05-23T04:37:16;78952.63;;;25.52;53.64
63665;BME280;49820;33.966;73.390;2023-05-23T04:39:49;78988.22;;;24.90;52.09
63665;BME280;49820;33.966;73.390;2023-05-23T04:42:48;78974.84;;;25.37;52.48
63665;BME280;49820;33.966;73.390;2023-05-23T04:45:41;78977.34;;;25.91;50.33
63665;BME280;49820;33.966;73.390;2023-05-23T04:48:25;78993.19;;;26.48;49.92
63665;BME280;49820;33.966;73.390;2023-05-23T04:50:56;78992.63;;;26.75;48.82
63665;BME280;49820;33.966;73.390;2023-05-23T04:53:29;78979.44;;;26.58;49.14
63665;BME280;49820;33.966;73.390;2023-05-23T04:55:58;78968.53;;;26.67;46.24
63665;BME280;49820;33.966;73.390;2023-05-23T04:58:29;78982.59;;;27.47;45.62
63665;BME280;49820;33.966;73.390;2023-05-23T05:01:03;79001.44;;;28.15;44.52
63665;BME280;49820;33.966;73.390;2023-05-23T05:03:34;79008.47;;;28.31;44.44
63665;BME280;49820;33.966;73.390;2023-05-23T05:06:03;78991.81;;;28.25;42.95
63665;BME280;49820;33.966;73.390;2023-05-23T05:08:35;78977.41;;;26.29;44.32
63665;BME280;49820;33.966;73.390;2023-05-23T05:11:06;79003.53;;;25.58;46.91
63665;BME280;49820;33.966;73.390;2023-05-23T05:13:36;78990.06;;;26.24;46.08
63665;BME280;49820;33.966;73.390;2023-05-23T05:16:06;79005.75;;;26.83;44.02
63665;BME280;49820;33.966;73.390;2023-05-23T05:18:35;79001.31;;;26.78;44.37
63665;BME280;49820;33.966;73.390;2023-05-23T05:21:04;78993.25;;;25.58;43.80
63665;BME280;49820;33.966;73.390;2023-05-23T05:23:35;79008.59;;;25.23;46.27
63665;BME280;49820;33.966;73.390;2023-05-23T05:26:06;79019.88;;;24.66;46.25
63665;BME280;49820;33.966;73.390;2023-05-23T05:28:37;79009.81;;;24.09;49.80
63665;BME280;49820;33.966;73.390;2023-05-23T05:31:06;79019.09;;;24.36;48.94
63665;BME280;49820;33.966;73.390;2023-05-23T05:33:36;78971.63;;;23.43;47.53
63665;BME280;49820;33.966;73.390;2023-05-23T05:36:11;79001.50;;;23.45;52.77
63665;BME280;49820;33.966;73.390;2023-05-23T05:38:58;79003.88;;;23.51;50.50
63665;BME280;49820;33.966;73.390;2023-05-23T05:41:27;79001.97;;;23.27;49.47
63665;BME280;49820;33.966;73.390;2023-05-23T05:43:57;78929.97;;;22.43;49.71
63665;BME280;49820;33.966;73.390;2023-05-23T05:46:27;79000.19;;;23.44;50.70
63665;BME280;49820;33.966;73.390;2023-05-23T05:48:57;78964.91;;;23.08;48.79
63665;BME280;49820;33.966;73.390;2023-05-23T05:51:26;78997.06;;;23.74;52.31
63665;BME280;49820;33.966;73.390;2023-05-23T05:53:55;78959.22;;;23.57;51.94
63665;BME280;49820;33.966;73.390;2023-05-23T05:56:25;78967.00;;;23.63;51.34
63665;BME280;49820;33.966;73.390;2023-05-23T05:58:55;78941.44;;;23.69;51.68
63665;BME280;49820;33.966;73.390;2023-05-23T06:01:26;78982.81;;;24.26;50.29
63665;BME280;49820;33.966;73.390;2023-05-23T06:03:55;78964.19;;;23.86;48.68
63665;BME280;49820;33.966;73.390;2023-05-23T06:06:25;78956.66;;;24.19;47.57
63665;BME280;49820;33.966;73.390;2023-05-23T06:08:54;78954.88;;;24.37;49.62
63665;BME280;49820;33.966;73.390;2023-05-23T06:11:23;78957.47;;;24.39;51.58
63665;BME280;49820;33.966;73.390;2023-05-23T06:13:52;78973.50;;;23.68;49.75
63665;BME280;49820;33.966;73.390;2023-05-23T06:16:23;78964.44;;;23.27;52.31
63665;BME280;49820;33.966;73.390;2023-05-23T06:18:52;78949.50;;;22.81;54.50
63665;BME280;49820;33.966;73.390;2023-05-23T06:21:39;78843.19;;;21.20;55.66
63665;BME280;49820;33.966;73.390;2023-05-23T06:24:10;78936.72;;;22.21;55.98
63665;BME280;49820;33.966;73.390;2023-05-23T06:26:40;78940.56;;;22.36;56.05
63665;BME280;49820;33.966;73.390;2023-05-23T06:29:09;78965.69;;;22.14;57.23
63665;BME280;49820;33.966;73.390;2023-05-23T06:31:39;78985.06;;;22.20;54.86
63665;BME280;49820;33.966;73.390;2023-05-23T06:34:08;78952.34;;;22.10;54.64
63665;BME280;49820;33.966;73.390;2023-05-23T06:36:39;78977.81;;;21.91;54.74
63665;BME280;49820;33.966;73.390;2023-05-23T06:39:10;78954.53;;;21.94;58.26
63665;BME280;49820;33.966;73.390;2023-05-23T06:41:39;78936.50;;;21.89;49.29
63665;BME280;49820;33.966;73.390;2023-05-23T06:44:08;78943.13;;;22.28;55.04
63665;BME280;49820;33.966;73.390;2023-05-23T06:46:43;78950.78;;;22.59;56.42
63665;BME280;49820;33.966;73.390;2023-05-23T06:49:14;78943.28;;;22.60;55.28
63665;BME280;49820;33.966;73.390;2023-05-23T06:51:44;78963.09;;;22.81;58.44
63665;BME280;49820;33.966;73.390;2023-05-23T06:54:14;78964.06;;;23.33;56.93
63665;BME280;49820;33.966;73.390;2023-05-23T06:56:46;78886.88;;;22.58;54.81
63665;BME280;49820;33.966;73.390;2023-05-23T06:59:15;78950.97;;;23.46;52.60
63665;BME280;49820;33.966;73.390;2023-05-23T07:02:02;78967.91;;;23.49;51.50
63665;BME280;49820;33.966;73.390;2023-05-23T07:04:32;78970.31;;;23.32;54.38
63665;BME280;49820;33.966;73.390;2023-05-23T07:07:07;78951.06;;;22.89;53.73
63665;BME280;49820;33.966;73.390;2023-05-23T07:09:37;78943.28;;;22.36;56.62
63665;BME280;49820;33.966;73.390;2023-05-23T07:12:11;78938.44;;;22.03;58.50
63665;BME280;49820;33.966;73.390;2023-05-23T07:14:43;78937.53;;;22.06;63.07
63665;BME280;49820;33.966;73.390;2023-05-23T07:17:13;78834.41;;;21.90;61.49
63665;BME280;49820;33.966;73.390;2023-05-23T07:19:44;78898.00;;;21.84;56.76
63665;BME280;49820;33.966;73.390;2023-05-23T07:22:14;78929.84;;;22.22;59.66
63665;BME280;49820;33.966;73.390;2023-05-23T07:24:43;78916.81;;;22.58;55.01
63665;BME280;49820;33.966;73.390;2023-05-23T07:27:14;78920.38;;;23.12;54.78
63665;BME280;49820;33.966;73.390;2023-05-23T07:29:43;78929.00;;;23.27;55.30
63665;BME280;49820;33.966;73.390;2023-05-23T07:32:12;78898.69;;;22.99;58.23
63665;BME280;49820;33.966;73.390;2023-05-23T07:34:43;78902.28;;;22.28;47.60
63665;BME280;49820;33.966;73.390;2023-05-23T07:37:12;78932.28;;;21.79;57.09
63665;BME280;49820;33.966;73.390;2023-05-23T07:39:43;78946.59;;;21.90;60.71
63665;BME280;49820;33.966;73.390;2023-05-23T07:42:12;78955.22;;;21.82;47.69
63665;BME280;49820;33.966;73.390;2023-05-23T07:44:42;78944.50;;;21.67;50.05
63665;BME280;49820;33.966;73.390;2023-05-23T07:47:11;78959.69;;;21.75;47.52
63665;BME280;49820;33.966;73.390;2023-05-23T07:49:40;78964.88;;;21.56;46.98
63665;BME280;49820;33.966;73.390;2023-05-23T07:52:09;78962.84;;;21.31;48.77
63665;BME280;49820;33.966;73.390;2023-05-23T07:54:39;78984.59;;;21.31;49.43
63665;BME280;49820;33.966;73.390;2023-05-23T07:57:09;78979.56;;;20.85;53.62
63665;BME280;49820;33.966;73.390;2023-05-23T07:59:38;78980.06;;;20.62;56.74
63665;BME280;49820;33.966;73.390;2023-05-23T08:02:09;78982.31;;;20.45;56.37
63665;BME280;49820;33.966;73.390;2023-05-23T08:04:39;78970.97;;;20.28;66.76
63665;BME280;49820;33.966;73.390;2023-05-23T08:07:09;78992.81;;;19.71;68.27
63665;BME280;49820;33.966;73.390;2023-05-23T08:09:49;78972.44;;;19.72;61.13
63665;BME280;49820;33.966;73.390;2023-05-23T08:12:19;78938.97;;;19.50;61.53
63665;BME280;49820;33.966;73.390;2023-05-23T08:14:56;78992.38;;;19.94;62.40
63665;BME280;49820;33.966;73.390;2023-05-23T08:17:32;78979.88;;;19.44;72.20
63665;BME280;49820;33.966;73.390;2023-05-23T08:20:02;78924.91;;;19.18;81.30
63665;BME280;49820;33.966;73.390;2023-05-23T08:22:32;78900.50;;;18.91;87.63
63665;BME280;49820;33.966;73.390;2023-05-23T08:25:03;78849.69;;;19.06;80.20
63665;BME280;49820;33.966;73.390;2023-05-23T08:27:37;78892.56;;;19.84;75.56
63665;BME280;49820;33.966;73.390;2023-05-23T08:30:36;78887.97;;;20.33;63.93
63665;BME280;49820;33.966;73.390;2023-05-23T08:33:05;78867.28;;;20.40;63.57
63665;BME280;49820;33.966;73.390;2023-05-23T08:35:37;78876.44;;;21.08;61.73
63665;BME280;49820;33.966;73.390;2023-05-23T08:38:09;78861.63;;;21.90;59.94
63665;BME280;49820;33.966;73.390;2023-05-23T08:40:51;78873.13;;;22.60;57.17
63665;BME280;49820;33.966;73.390;2023-05-23T08:43:22;78865.09;;;23.03;60.58
63665;BME280;49820;33.966;73.390;2023-05-23T08:45:51;78871.25;;;22.46;58.51
63665;BME280;49820;33.966;73.390;2023-05-23T08:48:21;78855.97;;;22.51;59.51
63665;BME280;49820;33.966;73.390;2023-05-23T08:50:54;78861.88;;;22.09;62.16
63665;BME280;49820;33.966;73.390;2023-05-23T08:53:26;78876.91;;;22.99;63.34
63665;BME280;49820;33.966;73.390;2023-05-23T08:56:05;78869.47;;;24.06;62.57
63665;BME280;49820;33.966;73.390;2023-05-23T08:58:42;78866.16;;;24.46;59.13
63665;BME280;49820;33.966;73.390;2023-05-23T09:01:12;78883.78;;;25.39;57.48
63665;BME280;49820;33.966;73.390;2023-05-23T09:03:42;78866.88;;;25.06;54.61
63665;BME280;49820;33.966;73.390;2023-05-23T09:06:23;78884.94;;;23.99;58.02
63665;BME280;49820;33.966;73.390;2023-05-23T09:08:53;78866.56;;;24.40;57.73
63665;BME280;49820;33.966;73.390;2023-05-23T09:11:23;78893.38;;;23.84;58.73
63665;BME280;49820;33.966;73.390;2023-05-23T09:13:54;78890.38;;;23.56;60.13
63665;BME280;49820;33.966;73.390;2023-05-23T09:16:26;78865.78;;;22.69;61.77
63665;BME280;49820;33.966;73.390;2023-05-23T09:19:12;78875.81;;;21.56;66.84
63665;BME280;49820;33.966;73.390;2023-05-23T09:22:02;78861.81;;;22.22;64.75
63665;BME280;49820;33.966;73.390;2023-05-23T09:24:36;78845.63;;;21.96;63.54
63665;BME280;49820;33.966;73.390;2023-05-23T09:27:08;78883.22;;;22.85;61.41
63665;BME280;49820;33.966;73.390;2023-05-23T09:29:37;78861.22;;;23.21;57.91
63665;BME280;49820;33.966;73.390;2023-05-23T09:32:17;78868.50;;;22.35;60.97
63665;BME280;49820;33.966;73.390;2023-05-23T09:34:56;78878.72;;;21.88;62.12
63665;BME280;49820;33.966;73.390;2023-05-23T09:37:34;78879.56;;;21.25;65.91
63665;BME280;49820;33.966;73.390;2023-05-23T09:40:09;78875.34;;;21.28;65.49
63665;BME280;49820;33.966;73.390;2023-05-23T09:42:44;78869.06;;;20.94;65.36
63665;BME280;49820;33.966;73.390;2023-05-23T09:45:15;78855.59;;;21.05;63.64
63665;BME280;49820;33.966;73.390;2023-05-23T09:47:51;78872.03;;;20.77;67.57
63665;BME280;49820;33.966;73.390;2023-05-23T09:50:22;78873.25;;;20.55;69.97
63665;BME280;49820;33.966;73.390;2023-05-23T09:52:51;78879.75;;;20.35;68.32
63665;BME280;49820;33.966;73.390;2023-05-23T09:55:21;78845.84;;;20.08;69.60
63665;BME280;49820;33.966;73.390;2023-05-23T09:57:53;78853.53;;;20.04;67.44
63665;BME280;49820;33.966;73.390;2023-05-23T10:00:26;78845.84;;;20.21;69.41
63665;BME280;49820;33.966;73.390;2023-05-23T10:03:10;78862.88;;;19.54;73.73
63665;BME280;49820;33.966;73.390;2023-05-23T10:05:48;78866.09;;;19.17;74.14
63665;BME280;49820;33.966;73.390;2023-05-23T10:08:33;78854.69;;;19.14;71.90
63665;BME280;49820;33.966;73.390;2023-05-23T10:13:47;78836.81;;;18.50;77.55
63665;BME280;49820;33.966;73.390;2023-05-23T10:19:25;78832.78;;;18.78;81.66
63665;BME280;49820;33.966;73.390;2023-05-23T10:22:00;78868.75;;;18.62;79.28
63665;BME280;49820;33.966;73.390;2023-05-23T10:24:31;78862.38;;;18.67;80.83
63665;BME280;49820;33.966;73.390;2023-05-23T10:27:02;78868.44;;;18.53;83.29
63665;BME280;49820;33.966;73.390;2023-05-23T10:29:31;78838.03;;;18.53;84.19
63665;BME280;49820;33.966;73.390;2023-05-23T10:32:05;78848.94;;;18.51;84.61
63665;BME280;49820;33.966;73.390;2023-05-23T10:34:43;78857.19;;;18.91;76.97
63665;BME280;49820;33.966;73.390;2023-05-23T10:40:36;78830.22;;;19.96;72.43
63665;BME280;49820;33.966;73.390;2023-05-23T10:43:43;78827.81;;;19.90;76.14
63665;BME280;49820;33.966;73.390;2023-05-23T10:46:14;78816.28;;;19.52;77.04
63665;BME280;49820;33.966;73.390;2023-05-23T10:48:45;78827.25;;;19.75;75.69
63665;BME280;49820;33.966;73.390;2023-05-23T10:51:14;78811.50;;;19.52;71.05
63665;BME280;49820;33.966;73.390;2023-05-23T10:54:09;78814.63;;;19.17;75.71
63665;BME280;49820;33.966;73.390;2023-05-23T10:56:39;78820.03;;;19.17;78.64
63665;BME280;49820;33.966;73.390;2023-05-23T10:59:19;78800.09;;;19.10;78.58
63665;BME280;49820;33.966;73.390;2023-05-23T11:01:50;78817.81;;;19.34;78.18
63665;BME280;49820;33.966;73.390;2023-05-23T11:04:27;78793.13;;;19.40;73.89
63665;BME280;49820;33.966;73.390;2023-05-23T11:06:56;78810.31;;;19.49;77.24
63665;BME280;49820;33.966;73.390;2023-05-23T11:09:26;78810.25;;;19.36;77.97
63665;BME280;49820;33.966;73.390;2023-05-23T11:12:01;78805.50;;;19.10;80.51
63665;BME280;49820;33.966;73.390;2023-05-23T11:17:24;78806.31;;;18.66;83.95
63665;BME280;49820;33.966;73.390;2023-05-23T11:20:08;78785.41;;;18.50;83.66
63665;BME280;49820;33.966;73.390;2023-05-23T11:22:52;78782.50;;;18.12;86.64
63665;BME280;49820;33.966;73.390;2023-05-23T11:25:40;78786.50;;;18.27;88.37
63665;BME280;49820;33.966;73.390;2023-05-23T11:28:11;78802.59;;;18.59;82.01
63665;BME280;49820;33.966;73.390;2023-05-23T11:30:42;78812.09;;;18.58;85.41
63665;BME280;49820;33.966;73.390;2023-05-23T11:33:12;78790.84;;;18.50;87.50
63665;BME280;49820;33.966;73.390;2023-05-23T11:35:46;78802.41;;;18.48;76.92
63665;BME280;49820;33.966;73.390;2023-05-23T11:38:16;78795.59;;;18.49;81.53
63665;BME280;49820;33.966;73.390;2023-05-23T11:40:46;78797.84;;;18.45;83.61
63665;BME280;49820;33.966;73.390;2023-05-23T11:43:16;78768.59;;;18.20;84.04
63665;BME280;49820;33.966;73.390;2023-05-23T11:45:46;78799.63;;;18.36;74.58
63665;BME280;49820;33.966;73.390;2023-05-23T11:48:16;78779.13;;;18.26;78.14
63665;BME280;49820;33.966;73.390;2023-05-23T11:50:52;78782.78;;;18.20;87.70
63665;BME280;49820;33.966;73.390;2023-05-23T11:53:25;78783.56;;;18.04;93.80
63665;BME280;49820;33.966;73.390;2023-05-23T11:55:57;78788.22;;;18.06;94.40
63665;BME280;49820;33.966;73.390;2023-05-23T11:58:36;78788.75;;;18.08;89.52
63665;BME280;49820;33.966;73.390;2023-05-23T12:01:10;78773.38;;;18.05;93.08
63665;BME280;49820;33.966;73.390;2023-05-23T12:03:48;78777.56;;;18.16;90.08
63665;BME280;49820;33.966;73.390;2023-05-23T12:06:18;78741.78;;;18.01;94.12
63665;BME280;49820;33.966;73.390;2023-05-23T12:08:50;78780.09;;;18.20;94.78
63665;BME280;49820;33.966;73.390;2023-05-23T12:11:20;78783.91;;;18.11;88.43
63665;BME280;49820;33.966;73.390;2023-05-23T12:13:51;78745.47;;;17.66;95.92
63665;BME280;49820;33.966;73.390;2023-05-23T12:16:21;78777.31;;;17.93;96.74
63665;BME280;49820;33.966;73.390;2023-05-23T12:18:52;78786.00;;;17.81;96.16
63665;BME280;49820;33.966;73.390;2023-05-23T12:21:25;78781.97;;;17.80;98.00
63665;BME280;49820;33.966;73.390;2023-05-23T12:23:55;78760.03;;;17.27;100.00
63665;BME280;49820;33.966;73.390;2023-05-23T12:26:25;78767.53;;;17.41;100.00
63665;BME280;49820;33.966;73.390;2023-05-23T12:28:54;78764.25;;;17.39;100.00
63665;BME280;49820;33.966;73.390;2023-05-23T12:31:26;78761.25;;;17.15;100.00
63665;BME280;49820;33.966;73.390;2023-05-23T12:33:56;78769.53;;;17.11;100.00
63665;BME280;49820;33.966;73.390;2023-05-23T12:36:28;78741.50;;;17.19;100.00
63665;BME280;49820;33.966;73.390;2023-05-23T12:39:02;78765.34;;;17.14;99.90
63665;BME280;49820;33.966;73.390;2023-05-23T12:41:32;78746.44;;;17.00;100.00
63665;BME280;49820;33.966;73.390;2023-05-23T12:44:02;78752.72;;;16.79;100.00
63665;BME280;49820;33.966;73.390;2023-05-23T12:46:32;78754.19;;;16.76;100.00
63665;BME280;49820;33.966;73.390;2023-05-23T12:49:01;78767.03;;;16.76;100.00
63665;BME280;49820;33.966;73.390;2023-05-23T12:51:30;78762.47;;;16.72;100.00
63665;BME280;49820;33.966;73.390;2023-05-23T12:54:00;78778.50;;;16.91;100.00
63665;BME280;49820;33.966;73.390;2023-05-23T12:56:29;78780.00;;;16.88;100.00
63665;BME280;49820;33.966;73.390;2023-05-23T12:58:59;78740.22;;;16.40;100.00
63665;BME280;49820;33.966;73.390;2023-05-23T13:01:29;78777.84;;;16.59;100.00
63665;BME280;49820;33.966;73.390;2023-05-23T13:03:59;78749.94;;;16.33;100.00
63665;BME280;49820;33.966;73.390;2023-05-23T13:06:29;78755.81;;;16.38;100.00
63665;BME280;49820;33.966;73.390;2023-05-23T13:08:58;78774.09;;;16.52;100.00
63665;BME280;49820;33.966;73.390;2023-05-23T13:11:28;78786.84;;;16.54;100.00
63665;BME280;49820;33.966;73.390;2023-05-23T13:13:58;78777.91;;;16.26;100.00
63665;BME280;49820;33.966;73.390;2023-05-23T13:16:28;78777.72;;;16.30;100.00
63665;BME280;49820;33.966;73.390;2023-05-23T13:18:57;78762.28;;;16.28;100.00
63665;BME280;49820;33.966;73.390;2023-05-23T13:21:26;78794.72;;;16.43;90.49
63665;BME280;49820;33.966;73.390;2023-05-23T13:23:56;78799.25;;;16.47;98.75
63665;BME280;49820;33.966;73.390;2023-05-23T13:26:25;78759.13;;;16.07;100.00
63665;BME280;49820;33.966;73.390;2023-05-23T13:28:54;78801.91;;;16.32;100.00
63665;BME280;49820;33.966;73.390;2023-05-23T13:31:23;78788.94;;;16.03;100.00
63665;BME280;49820;33.966;73.390;2023-05-23T13:33:53;78799.72;;;16.03;100.00
63665;BME280;49820;33.966;73.390;2023-05-23T13:36:22;78808.69;;;16.14;99.61
63665;BME280;49820;33.966;73.390;2023-05-23T13:38:52;78800.78;;;16.10;90.55
63665;BME280;49820;33.966;73.390;2023-05-23T13:41:22;78788.22;;;16.05;95.62
63665;BME280;49820;33.966;73.390;2023-05-23T13:43:51;78778.75;;;15.72;99.21
63665;BME280;49820;33.966;73.390;2023-05-23T13:46:20;78794.78;;;15.74;99.53
63665;BME280;49820;33.966;73.390;2023-05-23T13:48:49;78764.78;;;15.49;90.60
63665;BME280;49820;33.966;73.390;2023-05-23T13:51:18;78780.59;;;15.76;90.96
63665;BME280;49820;33.966;73.390;2023-05-23T13:53:47;78768.94;;;15.64;86.80
63665;BME280;49820;33.966;73.390;2023-05-23T13:56:16;78769.09;;;15.60;90.76
63665;BME280;49820;33.966;73.390;2023-05-23T13:58:46;78772.44;;;15.61;89.30
